X  CloseMetar Aviation Weather Data     NZCH Christchurch International

Temperature

12°C Temperature

12°C Dewpoint

100% Humidity



Wind

14 KM/H

 9 MPH

 4 M/S

 8 KTS



230°
South West
Current Conditions

Light Rain Mist Light Rain Mist
Pressure 1024.92 (hPa) - 30.27 (in)
Visibility 1.8 (mi) - 2.9 (km)
Airport
Airport-code NZCH

Location Christchurch International 14 (km)

Metar:
NZCH 211130Z AUTO 23008KT 2900 -RA BR OVC005/// 12/12 Q1025 NOSIG

Time: 21-04-2019 23:30